createdAt,value
2023-03-23T15:58:54.618Z,20.51
2023-03-23T16:01:26.845Z,20.03
2023-03-23T16:04:01.747Z,20.09
2023-03-23T16:06:33.220Z,19.85
2023-03-23T16:09:01.458Z,20.10
2023-03-23T16:11:31.513Z,20.40
2023-03-23T16:13:59.846Z,20.01
2023-03-23T16:16:43.596Z,19.55
2023-03-23T16:19:16.518Z,19.44
2023-03-23T16:21:44.382Z,19.56
2023-03-23T16:24:12.146Z,19.73
2023-03-23T16:26:41.097Z,19.43
2023-03-23T16:29:33.861Z,19.52
2023-03-23T16:32:04.967Z,20.25
2023-03-23T16:34:34.094Z,20.11
2023-03-23T16:37:02.084Z,20.34
2023-03-23T16:39:31.791Z,19.61
2023-03-23T16:41:59.420Z,19.12
2023-03-23T16:44:35.319Z,19.65
2023-03-23T16:47:02.456Z,19.45
2023-03-23T16:49:30.008Z,19.68
2023-03-23T16:51:57.761Z,19.91
2023-03-23T16:54:24.985Z,19.73
2023-03-23T16:56:52.895Z,20.07
2023-03-23T16:59:20.377Z,19.66
2023-03-23T17:01:51.369Z,19.55
2023-03-23T17:04:18.943Z,20.06
2023-03-23T17:06:49.525Z,19.68
2023-03-23T17:09:18.188Z,19.50
2023-03-23T17:11:45.579Z,20.05
2023-03-23T17:14:16.344Z,19.89
2023-03-23T17:16:44.052Z,19.37
2023-03-23T17:19:11.624Z,19.76
2023-03-23T17:21:39.318Z,19.89
2023-03-23T17:24:08.123Z,19.51
2023-03-23T17:26:36.811Z,19.45
2023-03-23T17:29:04.611Z,19.15
2023-03-23T17:31:32.055Z,19.46
2023-03-23T17:34:01.886Z,19.06
2023-03-23T17:36:31.209Z,19.17
2023-03-23T17:38:59.224Z,18.88
2023-03-23T17:41:27.202Z,19.20
2023-03-23T17:43:55.066Z,19.24
2023-03-23T17:46:23.092Z,19.12
2023-03-23T17:48:51.919Z,18.20
2023-03-23T17:51:22.686Z,18.65
2023-03-23T17:53:50.113Z,18.55
2023-03-23T17:56:18.906Z,18.87
2023-03-23T17:58:46.579Z,18.54
2023-03-23T18:01:14.333Z,18.76
2023-03-23T18:03:42.949Z,18.47
2023-03-23T18:06:14.578Z,18.23
2023-03-23T18:08:42.386Z,18.18
2023-03-23T18:11:09.767Z,18.31
2023-03-23T18:13:40.988Z,17.91
2023-03-23T18:16:14.077Z,18.46
2023-03-23T18:18:42.469Z,18.59
2023-03-23T18:21:11.074Z,18.69
2023-03-23T18:23:53.034Z,17.94
2023-03-23T18:26:26.738Z,17.93
2023-03-23T18:28:54.866Z,18.17
2023-03-23T18:31:22.819Z,17.99
2023-03-23T18:33:51.497Z,17.97
2023-03-23T18:36:21.610Z,18.27
2023-03-23T18:38:49.635Z,18.45
2023-03-23T18:41:18.146Z,18.72
2023-03-23T18:43:46.236Z,18.46
2023-03-23T18:46:16.777Z,18.63
2023-03-23T18:48:46.327Z,18.77
2023-03-23T18:51:15.019Z,18.77
2023-03-23T18:53:42.733Z,18.90
2023-03-23T18:56:16.382Z,18.52
2023-03-23T18:58:45.651Z,18.56
2023-03-23T19:01:16.400Z,18.53
2023-03-23T19:03:44.113Z,18.96
2023-03-23T19:06:18.616Z,18.67
2023-03-23T19:08:47.009Z,18.42
2023-03-23T19:11:14.948Z,18.17
2023-03-23T19:13:53.826Z,18.05
2023-03-23T19:16:26.124Z,18.00
2023-03-23T19:18:53.172Z,18.29
2023-03-23T19:21:24.969Z,18.28
2023-03-23T19:23:53.551Z,18.10
2023-03-23T19:26:46.496Z,18.46
2023-03-23T19:31:51.179Z,18.47
2023-03-23T19:34:22.185Z,18.38
2023-03-23T19:36:54.907Z,18.20
2023-03-23T19:39:26.919Z,18.22
2023-03-23T19:41:54.386Z,18.19
2023-03-23T19:44:22.265Z,18.20
2023-03-23T19:46:52.876Z,18.30
2023-03-23T19:49:21.160Z,18.53
2023-03-23T19:52:08.870Z,18.41
2023-03-23T19:54:39.126Z,18.45
2023-03-23T19:57:07.851Z,18.45
2023-03-23T19:59:35.620Z,17.85
2023-03-23T20:02:03.026Z,17.77
2023-03-23T20:04:30.752Z,17.80
2023-03-23T20:06:59.187Z,17.82
2023-03-23T20:09:31.265Z,17.99
2023-03-23T20:11:58.611Z,18.00
2023-03-23T20:14:29.403Z,18.02
2023-03-23T20:16:59.505Z,18.11
2023-03-23T20:19:29.509Z,18.02
2023-03-23T20:21:56.749Z,18.16
2023-03-23T20:24:24.337Z,18.20
2023-03-23T20:26:51.961Z,17.96
2023-03-23T20:29:24.430Z,17.72
2023-03-23T20:31:54.923Z,17.87
2023-03-23T20:34:36.577Z,18.17
2023-03-23T20:37:19.172Z,17.85
2023-03-23T20:40:01.203Z,17.81
2023-03-23T20:42:31.994Z,17.89
2023-03-23T20:45:02.808Z,17.60
2023-03-23T20:47:36.181Z,17.50
2023-03-23T20:50:09.071Z,17.60
2023-03-23T20:52:41.381Z,17.63
2023-03-23T20:55:10.064Z,17.87
2023-03-23T20:57:40.429Z,17.89
2023-03-23T21:00:10.035Z,17.95
2023-03-23T21:02:37.594Z,18.09
2023-03-23T21:05:07.213Z,18.09
2023-03-23T21:07:34.794Z,17.77
2023-03-23T21:10:02.528Z,18.12
2023-03-23T21:12:29.948Z,18.17
2023-03-23T21:15:03.767Z,18.00
2023-03-23T21:17:31.526Z,18.11
2023-03-23T21:20:05.027Z,17.78
2023-03-23T21:22:32.485Z,18.04
2023-03-23T21:25:02.845Z,18.05
2023-03-23T21:27:43.266Z,18.07
2023-03-23T21:30:16.374Z,18.07
2023-03-23T21:32:50.221Z,17.87
2023-03-23T21:35:23.113Z,18.06
2023-03-23T21:37:50.620Z,18.18
2023-03-23T21:40:19.271Z,18.11
2023-03-23T21:42:49.522Z,18.14
2023-03-23T21:45:26.262Z,18.36
2023-03-23T21:47:57.350Z,18.44
2023-03-23T21:50:26.104Z,18.57
2023-03-23T21:52:54.161Z,18.68
2023-03-23T21:55:22.280Z,18.77
2023-03-23T22:00:47.432Z,18.86
2023-03-23T22:03:23.263Z,18.85
2023-03-23T22:06:31.744Z,18.82
2023-03-23T22:09:00.259Z,18.88
2023-03-23T22:11:43.548Z,18.88
2023-03-23T22:14:25.589Z,18.96
2023-03-23T22:16:53.423Z,18.90
2023-03-23T22:19:23.549Z,18.94
2023-03-23T22:21:50.737Z,18.96
2023-03-23T22:24:28.535Z,18.91
2023-03-23T22:27:08.438Z,18.85
2023-03-23T22:29:43.350Z,18.90
2023-03-23T22:32:13.355Z,18.92
2023-03-23T22:34:43.453Z,18.98
2023-03-23T22:37:28.652Z,18.98
2023-03-23T22:40:12.832Z,18.99
2023-03-23T22:42:43.887Z,18.98
2023-03-23T22:45:19.550Z,18.98
2023-03-23T22:48:00.995Z,19.05
2023-03-23T22:51:36.104Z,19.03
2023-03-23T22:54:16.998Z,19.07
2023-03-23T22:56:47.372Z,18.98
2023-03-23T22:59:20.362Z,19.00
2023-03-23T23:01:56.103Z,19.04
2023-03-23T23:04:46.149Z,19.04
2023-03-23T23:07:15.257Z,19.04
2023-03-23T23:09:52.175Z,19.03
2023-03-23T23:12:21.871Z,19.05
2023-03-23T23:14:59.002Z,19.05
2023-03-23T23:17:35.104Z,19.07
2023-03-23T23:20:14.500Z,19.08
2023-03-23T23:22:52.945Z,19.03
2023-03-23T23:25:23.778Z,19.06
2023-03-23T23:27:57.512Z,19.05
2023-03-23T23:30:34.067Z,19.06
2023-03-23T23:33:07.498Z,19.05
2023-03-23T23:35:41.968Z,19.00
2023-03-23T23:38:12.808Z,19.02
2023-03-23T23:40:51.720Z,19.02
2023-03-23T23:43:27.239Z,19.03
2023-03-23T23:45:57.488Z,19.01
2023-03-23T23:48:24.597Z,19.07
2023-03-23T23:50:52.270Z,19.02
2023-03-23T23:53:23.191Z,18.94
2023-03-23T23:55:50.658Z,18.95
2023-03-23T23:58:21.262Z,18.90
